Time;durP1;ratioP1;P1;durP2;ratioP2;P2;SDS_P1;SDS_P2;PMS_P1;PMS_P2;Temp;Humidity;BMP_temperature;BMP_pressure;BME280_temperature;BME280_humidity;BME280_pressure;Samples;Min_cycle;Max_cycle;Signal;HPM_P1;HPM_P2
2022/10/23 00:00:31;;;;;;;1.20;1.20;;;;;;;;;;4995091;28;20678;-57
2022/10/23 00:02:58;;;;;;;1.40;1.40;;;;;;;;;;4999594;28;20223;-57
2022/10/23 00:05:24;;;;;;;1.73;1.70;;;;;;;;;;4998675;28;20847;-57
2022/10/23 00:07:50;;;;;;;1.63;1.63;;;;;;;;;;4976479;28;20252;-56
2022/10/23 00:10:16;;;;;;;1.60;1.60;;;;;;;;;;4963930;28;20236;-56
2022/10/23 00:12:43;;;;;;;1.60;1.60;;;;;;;;;;4975478;28;20356;-57
2022/10/23 00:15:09;;;;;;;2.07;1.97;;;;;;;;;;4990215;28;20585;-56
2022/10/23 00:17:35;;;;;;;1.50;1.50;;;;;;;;;;4997062;28;20728;-56
2022/10/23 00:20:01;;;;;;;1.67;1.67;;;;;;;;;;4992263;28;20307;-57
2022/10/23 00:22:27;;;;;;;2.00;1.90;;;;;;;;;;4985275;28;20319;-57
2022/10/23 00:24:53;;;;;;;1.53;1.53;;;;;;;;;;4985724;28;20236;-56
2022/10/23 00:27:18;;;;;;;1.50;1.50;;;;;;;;;;4977049;28;20250;-57
2022/10/23 00:29:44;;;;;;;1.33;1.33;;;;;;;;;;4987678;28;20233;-57
2022/10/23 00:32:10;;;;;;;1.50;1.50;;;;;;;;;;4978161;28;20252;-57
2022/10/23 00:34:36;;;;;;;1.80;1.70;;;;;;;;;;4960350;28;20676;-57
2022/10/23 00:37:02;;;;;;;1.53;1.53;;;;;;;;;;4972528;28;20229;-57
2022/10/23 00:39:28;;;;;;;1.50;1.50;;;;;;;;;;4980750;28;20221;-57
2022/10/23 00:41:54;;;;;;;1.87;1.77;;;;;;;;;;4969805;28;20761;-57
2022/10/23 00:44:20;;;;;;;1.40;1.40;;;;;;;;;;4980745;28;20684;-56
2022/10/23 00:46:46;;;;;;;1.30;1.30;;;;;;;;;;4979084;28;21436;-57
2022/10/23 00:49:12;;;;;;;1.60;1.60;;;;;;;;;;4980562;28;20229;-56
2022/10/23 00:51:39;;;;;;;1.40;1.40;;;;;;;;;;4984599;28;20217;-57
2022/10/23 00:54:05;;;;;;;1.47;1.47;;;;;;;;;;4974839;28;20222;-57
2022/10/23 00:56:31;;;;;;;1.43;1.43;;;;;;;;;;4977297;28;20748;-57
2022/10/23 00:58:57;;;;;;;1.30;1.30;;;;;;;;;;4960398;28;20299;-57
2022/10/23 01:01:23;;;;;;;1.43;1.43;;;;;;;;;;4991729;28;20377;-57
2022/10/23 01:03:49;;;;;;;1.43;1.43;;;;;;;;;;4996742;28;20259;-57
2022/10/23 01:06:26;;;;;;;1.40;1.40;;;;;;;;;;4993144;28;21257;-57
2022/10/23 01:08:56;;;;;;;1.73;1.70;;;;;;;;;;4968852;28;20347;-56
2022/10/23 01:11:25;;;;;;;1.47;1.47;;;;;;;;;;4982372;28;20233;-56
2022/10/23 01:14:01;;;;;;;1.60;1.60;;;;;;;;;;4974777;28;20259;-58
2022/10/23 01:16:31;;;;;;;1.60;1.60;;;;;;;;;;4965967;28;20228;-57
2022/10/23 01:19:09;;;;;;;1.60;1.60;;;;;;;;;;4983327;28;20301;-57
2022/10/23 01:21:50;;;;;;;1.40;1.40;;;;;;;;;;4967972;28;20232;-57
2022/10/23 01:24:39;;;;;;;2.00;1.90;;;;;;;;;;4978147;28;20240;-56
2022/10/23 01:27:21;;;;;;;1.70;1.70;;;;;;;;;;4972526;28;20253;-57
2022/10/23 01:29:49;;;;;;;1.80;1.70;;;;;;;;;;4982545;28;20691;-57
2022/10/23 01:32:17;;;;;;;1.50;1.50;;;;;;;;;;4994006;28;20241;-56
2022/10/23 01:34:44;;;;;;;1.60;1.60;;;;;;;;;;4970816;28;20597;-57
2022/10/23 01:37:10;;;;;;;1.70;1.70;;;;;;;;;;4964932;28;20711;-57
2022/10/23 01:39:37;;;;;;;1.40;1.40;;;;;;;;;;4968295;28;20598;-57
2022/10/23 01:42:05;;;;;;;1.50;1.50;;;;;;;;;;4961160;28;20310;-57
2022/10/23 01:44:35;;;;;;;1.50;1.50;;;;;;;;;;4965509;28;20246;-57
2022/10/23 01:47:01;;;;;;;1.67;1.67;;;;;;;;;;4984603;28;20699;-57
2022/10/23 01:49:27;;;;;;;1.50;1.50;;;;;;;;;;4994004;28;20236;-57
2022/10/23 01:51:54;;;;;;;1.60;1.60;;;;;;;;;;4989105;28;20259;-57
2022/10/23 01:54:21;;;;;;;1.30;1.30;;;;;;;;;;5002143;28;20225;-57
2022/10/23 01:56:47;;;;;;;1.40;1.40;;;;;;;;;;4973060;28;20214;-56
2022/10/23 01:59:14;;;;;;;1.50;1.50;;;;;;;;;;4993207;28;20312;-58
2022/10/23 02:01:41;;;;;;;1.60;1.60;;;;;;;;;;4986883;28;21465;-56
2022/10/23 02:04:07;;;;;;;1.53;1.53;;;;;;;;;;5000221;28;20210;-57
2022/10/23 02:06:33;;;;;;;1.53;1.53;;;;;;;;;;4992259;28;20241;-57
2022/10/23 02:08:59;;;;;;;1.60;1.60;;;;;;;;;;4991969;28;21287;-57
2022/10/23 02:11:25;;;;;;;1.30;1.30;;;;;;;;;;4995395;28;20235;-57
2022/10/23 02:14:05;;;;;;;1.40;1.40;;;;;;;;;;4996222;28;20237;-57
2022/10/23 02:16:34;;;;;;;1.40;1.40;;;;;;;;;;4989889;28;20236;-57
2022/10/23 02:19:06;;;;;;;3.03;2.93;;;;;;;;;;4995941;28;20233;-57
2022/10/23 02:21:48;;;;;;;2.90;2.80;;;;;;;;;;4992579;28;20665;-57
2022/10/23 02:24:15;;;;;;;3.23;3.13;;;;;;;;;;4991249;28;20224;-57
2022/10/23 02:26:50;;;;;;;1.20;1.20;;;;;;;;;;4963968;28;20222;-57
2022/10/23 02:29:18;;;;;;;1.20;1.20;;;;;;;;;;4986010;28;20227;-57
2022/10/23 02:31:44;;;;;;;1.60;1.60;;;;;;;;;;4984174;28;21201;-57
2022/10/23 02:34:10;;;;;;;1.33;1.33;;;;;;;;;;4959202;28;20327;-57
2022/10/23 02:36:36;;;;;;;1.20;1.20;;;;;;;;;;4987907;28;20221;-56
2022/10/23 02:39:02;;;;;;;1.30;1.30;;;;;;;;;;4988509;28;20232;-56
2022/10/23 02:41:34;;;;;;;1.40;1.40;;;;;;;;;;4983549;28;20707;-56
2022/10/23 02:44:16;;;;;;;1.50;1.50;;;;;;;;;;4958677;28;20322;-57
2022/10/23 02:46:49;;;;;;;1.40;1.40;;;;;;;;;;4975948;28;20229;-56
2022/10/23 02:49:18;;;;;;;1.77;1.70;;;;;;;;;;4954107;28;20633;-57
2022/10/23 02:51:47;;;;;;;1.50;1.50;;;;;;;;;;4964527;28;24021;-57
2022/10/23 02:54:33;;;;;;;1.60;1.60;;;;;;;;;;4980181;28;20240;-57
2022/10/23 02:57:04;;;;;;;1.60;1.60;;;;;;;;;;4983057;28;20503;-57
2022/10/23 02:59:35;;;;;;;2.30;2.20;;;;;;;;;;4983231;28;20598;-56
2022/10/23 03:02:02;;;;;;;2.10;2.00;;;;;;;;;;4994775;28;20213;-57
2022/10/23 03:04:28;;;;;;;1.63;1.63;;;;;;;;;;4979084;28;20224;-56
2022/10/23 03:06:53;;;;;;;1.40;1.40;;;;;;;;;;4992843;28;20241;-56
2022/10/23 03:09:19;;;;;;;1.40;1.40;;;;;;;;;;4963083;28;20309;-58
2022/10/23 03:11:45;;;;;;;1.57;1.57;;;;;;;;;;4996626;28;20279;-56
2022/10/23 03:14:12;;;;;;;1.50;1.50;;;;;;;;;;4995448;28;20225;-57
2022/10/23 03:16:38;;;;;;;1.60;1.60;;;;;;;;;;4970644;28;20240;-57
2022/10/23 03:19:04;;;;;;;1.50;1.50;;;;;;;;;;4988466;28;20225;-56
2022/10/23 03:21:30;;;;;;;1.50;1.50;;;;;;;;;;4995049;28;20225;-57
2022/10/23 03:23:55;;;;;;;1.30;1.30;;;;;;;;;;4982586;28;20236;-57
2022/10/23 03:26:21;;;;;;;1.90;1.80;;;;;;;;;;4981709;28;20276;-57
2022/10/23 03:28:47;;;;;;;1.37;1.37;;;;;;;;;;4973737;28;20232;-57
2022/10/23 03:31:13;;;;;;;1.40;1.40;;;;;;;;;;4992118;28;20236;-58
2022/10/23 03:33:39;;;;;;;1.47;1.47;;;;;;;;;;4984529;28;20235;-56
2022/10/23 03:36:05;;;;;;;1.30;1.30;;;;;;;;;;4990537;28;20740;-57
2022/10/23 03:38:31;;;;;;;1.70;1.70;;;;;;;;;;4980284;28;20252;-57
2022/10/23 03:40:57;;;;;;;1.40;1.40;;;;;;;;;;4996164;28;20269;-56
2022/10/23 03:43:23;;;;;;;1.60;1.60;;;;;;;;;;4989046;28;20229;-57
2022/10/23 03:45:50;;;;;;;1.30;1.30;;;;;;;;;;4987477;28;20683;-57
2022/10/23 03:48:16;;;;;;;1.40;1.40;;;;;;;;;;4992324;28;20287;-56
2022/10/23 03:50:42;;;;;;;1.60;1.60;;;;;;;;;;4984630;28;20221;-57
2022/10/23 03:53:08;;;;;;;1.87;1.77;;;;;;;;;;4997947;28;20291;-56
2022/10/23 03:55:34;;;;;;;1.60;1.60;;;;;;;;;;4990305;28;20700;-56
2022/10/23 03:58:00;;;;;;;1.20;1.20;;;;;;;;;;4987524;28;20699;-57
2022/10/23 04:00:26;;;;;;;1.60;1.60;;;;;;;;;;4982316;28;21150;-57
2022/10/23 04:02:52;;;;;;;1.60;1.60;;;;;;;;;;4985166;28;20583;-57
2022/10/23 04:05:18;;;;;;;1.60;1.60;;;;;;;;;;4992797;28;20891;-57
2022/10/23 04:07:44;;;;;;;1.50;1.50;;;;;;;;;;4998204;28;20517;-56
2022/10/23 04:10:10;;;;;;;1.90;1.80;;;;;;;;;;4996027;28;20233;-57
2022/10/23 04:12:36;;;;;;;1.43;1.43;;;;;;;;;;4991921;28;20244;-57
2022/10/23 04:15:02;;;;;;;1.73;1.70;;;;;;;;;;4996657;28;20279;-57
2022/10/23 04:17:28;;;;;;;1.50;1.50;;;;;;;;;;4988540;28;20258;-57
2022/10/23 04:19:54;;;;;;;1.20;1.20;;;;;;;;;;4992859;28;20319;-57
2022/10/23 04:22:19;;;;;;;1.50;1.50;;;;;;;;;;4973667;28;20227;-56
2022/10/23 04:24:46;;;;;;;1.50;1.50;;;;;;;;;;4978295;28;20966;-56
2022/10/23 04:27:12;;;;;;;1.27;1.27;;;;;;;;;;4955259;28;20280;-57
2022/10/23 04:29:38;;;;;;;1.40;1.40;;;;;;;;;;4988378;28;20222;-57
2022/10/23 04:32:06;;;;;;;1.20;1.20;;;;;;;;;;4987624;28;20236;-57
2022/10/23 04:34:32;;;;;;;1.60;1.60;;;;;;;;;;4959593;28;20250;-57
2022/10/23 04:36:58;;;;;;;1.63;1.63;;;;;;;;;;4989120;28;20862;-57
2022/10/23 04:39:23;;;;;;;1.40;1.40;;;;;;;;;;4979370;28;20311;-57
2022/10/23 04:41:49;;;;;;;1.80;1.70;;;;;;;;;;4977152;28;20817;-56
2022/10/23 04:44:15;;;;;;;1.40;1.40;;;;;;;;;;4982568;28;25020;-57
2022/10/23 04:46:41;;;;;;;1.87;1.77;;;;;;;;;;4981546;28;20216;-57
2022/10/23 04:49:07;;;;;;;1.67;1.67;;;;;;;;;;4981109;28;20229;-57
2022/10/23 04:51:33;;;;;;;1.60;1.60;;;;;;;;;;4990314;28;20224;-56
2022/10/23 04:53:59;;;;;;;1.77;1.70;;;;;;;;;;4983061;28;20238;-56
2022/10/23 04:56:25;;;;;;;1.47;1.47;;;;;;;;;;4981659;28;20311;-57
2022/10/23 04:58:51;;;;;;;1.73;1.67;;;;;;;;;;4982963;28;20268;-57
2022/10/23 05:01:17;;;;;;;1.40;1.40;;;;;;;;;;4995206;28;20704;-56
2022/10/23 05:03:43;;;;;;;1.60;1.60;;;;;;;;;;4989877;28;20227;-56
2022/10/23 05:06:09;;;;;;;1.30;1.30;;;;;;;;;;4983046;28;20707;-58
2022/10/23 05:08:35;;;;;;;1.40;1.40;;;;;;;;;;4996724;28;20654;-57
2022/10/23 05:11:01;;;;;;;1.60;1.60;;;;;;;;;;4992742;28;20707;-58
2022/10/23 05:13:27;;;;;;;1.33;1.33;;;;;;;;;;4995633;28;20274;-57
2022/10/23 05:15:53;;;;;;;1.40;1.40;;;;;;;;;;4982427;28;20229;-57
2022/10/23 05:18:24;;;;;;;1.40;1.40;;;;;;;;;;4991858;28;20296;-57
2022/10/23 05:20:51;;;;;;;1.40;1.40;;;;;;;;;;4988885;28;20237;-58
2022/10/23 05:23:17;;;;;;;1.40;1.40;;;;;;;;;;4973519;28;20221;-57
2022/10/23 05:25:43;;;;;;;1.60;1.60;;;;;;;;;;4979939;28;20250;-57
2022/10/23 05:28:09;;;;;;;1.50;1.50;;;;;;;;;;4978040;28;20251;-57
2022/10/23 05:30:35;;;;;;;1.50;1.50;;;;;;;;;;4977198;28;20324;-58
2022/10/23 05:33:01;;;;;;;2.00;1.90;;;;;;;;;;4996361;28;20301;-58
2022/10/23 05:35:27;;;;;;;1.77;1.70;;;;;;;;;;4984938;28;20593;-57
2022/10/23 05:37:53;;;;;;;1.63;1.63;;;;;;;;;;4973215;28;20257;-58
2022/10/23 05:40:19;;;;;;;1.90;1.80;;;;;;;;;;4967924;28;20232;-58
2022/10/23 05:42:45;;;;;;;1.53;1.53;;;;;;;;;;4993998;28;20355;-57
2022/10/23 05:45:11;;;;;;;1.93;1.83;;;;;;;;;;4996174;28;20680;-58
2022/10/23 05:47:37;;;;;;;1.90;1.80;;;;;;;;;;4992698;28;21423;-57
2022/10/23 05:50:03;;;;;;;1.53;1.53;;;;;;;;;;4966834;28;20643;-57
2022/10/23 05:52:29;;;;;;;1.40;1.40;;;;;;;;;;4992436;28;20285;-57
2022/10/23 05:54:55;;;;;;;1.50;1.50;;;;;;;;;;4997198;28;20222;-58
2022/10/23 05:57:21;;;;;;;1.30;1.30;;;;;;;;;;5005967;28;20229;-57
2022/10/23 05:59:47;;;;;;;1.40;1.40;;;;;;;;;;4995317;28;20691;-57
2022/10/23 06:02:13;;;;;;;1.40;1.40;;;;;;;;;;4991166;28;20225;-57
2022/10/23 06:04:38;;;;;;;1.50;1.50;;;;;;;;;;4989899;28;20607;-57
2022/10/23 06:07:04;;;;;;;1.60;1.60;;;;;;;;;;4998426;28;20233;-58
2022/10/23 06:09:30;;;;;;;1.43;1.43;;;;;;;;;;5004880;28;20221;-58
2022/10/23 06:11:56;;;;;;;1.60;1.60;;;;;;;;;;4998911;28;20232;-57
2022/10/23 06:14:22;;;;;;;1.40;1.40;;;;;;;;;;4992910;28;20233;-57
2022/10/23 06:16:48;;;;;;;1.40;1.40;;;;;;;;;;4991802;28;20653;-58
2022/10/23 06:19:14;;;;;;;1.30;1.30;;;;;;;;;;4993256;28;20308;-58
2022/10/23 06:21:40;;;;;;;1.40;1.40;;;;;;;;;;4991693;28;20224;-57
2022/10/23 06:24:06;;;;;;;1.17;1.17;;;;;;;;;;4999207;28;20229;-57
2022/10/23 06:26:32;;;;;;;1.13;1.13;;;;;;;;;;4997868;28;20278;-57
2022/10/23 06:28:58;;;;;;;1.20;1.20;;;;;;;;;;4995170;28;20220;-58
2022/10/23 06:31:26;;;;;;;1.30;1.30;;;;;;;;;;4989637;28;20237;-57
2022/10/23 06:33:52;;;;;;;1.30;1.30;;;;;;;;;;4981052;28;20909;-58
2022/10/23 06:36:18;;;;;;;1.10;1.10;;;;;;;;;;4979614;28;20239;-57
2022/10/23 06:38:44;;;;;;;1.30;1.30;;;;;;;;;;4986032;28;20221;-58
2022/10/23 06:41:14;;;;;;;1.30;1.30;;;;;;;;;;4990052;28;20279;-58
2022/10/23 06:43:40;;;;;;;1.10;1.10;;;;;;;;;;4986241;28;20235;-57
2022/10/23 06:46:06;;;;;;;1.30;1.30;;;;;;;;;;4982640;28;21585;-57
2022/10/23 06:48:32;;;;;;;1.10;1.10;;;;;;;;;;4987287;28;20364;-57
2022/10/23 06:50:58;;;;;;;1.40;1.40;;;;;;;;;;4993037;28;20229;-57
2022/10/23 06:53:24;;;;;;;1.20;1.20;;;;;;;;;;4987894;28;20236;-57
2022/10/23 06:55:50;;;;;;;1.20;1.20;;;;;;;;;;4988775;28;20221;-57
2022/10/23 06:58:17;;;;;;;1.27;1.27;;;;;;;;;;4983791;28;20224;-57
2022/10/23 07:00:43;;;;;;;1.40;1.40;;;;;;;;;;4993344;28;20654;-58
2022/10/23 07:03:09;;;;;;;1.20;1.20;;;;;;;;;;4983744;28;20232;-58
2022/10/23 07:05:35;;;;;;;1.40;1.40;;;;;;;;;;4982611;28;20229;-58
2022/10/23 07:08:01;;;;;;;1.40;1.40;;;;;;;;;;4978760;28;20228;-57
2022/10/23 07:10:27;;;;;;;1.40;1.40;;;;;;;;;;4968047;28;20530;-62
2022/10/23 07:12:55;;;;;;;1.00;1.00;;;;;;;;;;4961624;28;20270;-58
2022/10/23 07:15:21;;;;;;;1.10;1.10;;;;;;;;;;4980088;28;20704;-58
2022/10/23 07:17:47;;;;;;;1.30;1.30;;;;;;;;;;4996177;28;20923;-60
2022/10/23 07:20:13;;;;;;;1.10;1.10;;;;;;;;;;4977081;28;20229;-59
2022/10/23 07:22:39;;;;;;;1.07;1.07;;;;;;;;;;4986802;28;21600;-59
2022/10/23 07:25:05;;;;;;;1.10;1.10;;;;;;;;;;4994027;28;20222;-59
2022/10/23 07:27:31;;;;;;;1.10;1.10;;;;;;;;;;4987824;28;20300;-60
2022/10/23 07:29:57;;;;;;;1.30;1.30;;;;;;;;;;4998346;28;20224;-59
2022/10/23 07:32:23;;;;;;;1.20;1.20;;;;;;;;;;4984996;28;20222;-58
2022/10/23 07:34:49;;;;;;;1.40;1.40;;;;;;;;;;4979319;28;20233;-56
2022/10/23 07:37:15;;;;;;;1.10;1.10;;;;;;;;;;5000370;28;20357;-56
2022/10/23 07:39:41;;;;;;;1.00;1.00;;;;;;;;;;4991211;28;20224;-56
2022/10/23 07:42:08;;;;;;;1.03;1.03;;;;;;;;;;4993251;28;20232;-56
2022/10/23 07:44:33;;;;;;;1.20;1.20;;;;;;;;;;4987209;28;20722;-56
2022/10/23 07:47:00;;;;;;;1.10;1.10;;;;;;;;;;4989628;28;20229;-57
2022/10/23 07:49:26;;;;;;;1.20;1.20;;;;;;;;;;4984284;28;20339;-56
2022/10/23 07:51:52;;;;;;;1.00;1.00;;;;;;;;;;4986194;28;20755;-57
2022/10/23 07:54:18;;;;;;;1.00;1.00;;;;;;;;;;4988108;28;20218;-56
2022/10/23 07:56:44;;;;;;;0.90;0.90;;;;;;;;;;4980722;28;20234;-56
2022/10/23 07:59:11;;;;;;;1.10;1.10;;;;;;;;;;4962844;28;20232;-56
2022/10/23 08:01:38;;;;;;;0.90;0.90;;;;;;;;;;4977764;28;20225;-57
2022/10/23 08:04:04;;;;;;;1.10;1.10;;;;;;;;;;4965225;28;20429;-56
2022/10/23 08:06:30;;;;;;;1.10;1.10;;;;;;;;;;4955243;28;21010;-56
2022/10/23 08:08:56;;;;;;;1.20;1.20;;;;;;;;;;4964451;28;20253;-57
2022/10/23 08:11:25;;;;;;;0.90;0.90;;;;;;;;;;4972238;28;20307;-56
2022/10/23 08:13:52;;;;;;;1.20;1.20;;;;;;;;;;4987228;28;20646;-56
2022/10/23 08:16:18;;;;;;;1.37;1.37;;;;;;;;;;4991286;28;20692;-57
2022/10/23 08:18:44;;;;;;;1.00;1.00;;;;;;;;;;4967773;28;20229;-57
2022/10/23 08:21:10;;;;;;;1.00;1.00;;;;;;;;;;4987729;28;20233;-56
2022/10/23 08:23:36;;;;;;;1.00;1.00;;;;;;;;;;4977824;28;20282;-56
2022/10/23 08:26:02;;;;;;;1.17;1.17;;;;;;;;;;4978243;28;20221;-57
2022/10/23 08:28:28;;;;;;;1.10;1.10;;;;;;;;;;4977838;28;20242;-56
2022/10/23 08:30:54;;;;;;;1.00;1.00;;;;;;;;;;4987616;28;20324;-57
2022/10/23 08:33:20;;;;;;;1.20;1.20;;;;;;;;;;4986172;28;20661;-57
2022/10/23 08:35:46;;;;;;;1.00;1.00;;;;;;;;;;4980866;28;20286;-56
2022/10/23 08:38:12;;;;;;;1.07;1.07;;;;;;;;;;4981267;28;21046;-56
2022/10/23 08:40:38;;;;;;;1.10;1.10;;;;;;;;;;4975837;28;20221;-56
2022/10/23 08:43:10;;;;;;;0.93;0.93;;;;;;;;;;4986532;28;20329;-57
2022/10/23 08:45:39;;;;;;;0.90;0.90;;;;;;;;;;4987433;28;20233;-57
2022/10/23 08:48:09;;;;;;;1.20;1.20;;;;;;;;;;4971161;28;20352;-56
2022/10/23 08:50:42;;;;;;;1.00;1.00;;;;;;;;;;4990299;28;20217;-57
2022/10/23 08:53:15;;;;;;;0.90;0.90;;;;;;;;;;4967121;28;20216;-57
2022/10/23 08:55:42;;;;;;;1.30;1.30;;;;;;;;;;4961753;28;20251;-57
2022/10/23 08:58:19;;;;;;;1.20;1.20;;;;;;;;;;4991653;28;20243;-57
2022/10/23 09:00:46;;;;;;;1.97;1.87;;;;;;;;;;4996943;28;20311;-58
2022/10/23 09:03:12;;;;;;;1.50;1.50;;;;;;;;;;4972960;28;20235;-56
2022/10/23 09:05:57;;;;;;;1.10;1.10;;;;;;;;;;4982224;28;20290;-56
2022/10/23 09:08:25;;;;;;;1.60;1.60;;;;;;;;;;4988109;28;20656;-56
2022/10/23 09:10:51;;;;;;;1.60;1.60;;;;;;;;;;4965982;28;20768;-56
2022/10/23 09:13:20;;;;;;;1.20;1.20;;;;;;;;;;4981204;28;20229;-58
2022/10/23 09:15:51;;;;;;;1.30;1.30;;;;;;;;;;4989941;28;20225;-58
2022/10/23 09:18:17;;;;;;;1.50;1.50;;;;;;;;;;4993788;28;20233;-59
2022/10/23 09:20:44;;;;;;;1.20;1.20;;;;;;;;;;4998019;28;20867;-58
2022/10/23 09:23:13;;;;;;;1.50;1.50;;;;;;;;;;4996747;28;20274;-58
2022/10/23 09:25:40;;;;;;;1.20;1.20;;;;;;;;;;4990817;28;20229;-58
2022/10/23 09:28:06;;;;;;;1.20;1.20;;;;;;;;;;4978659;28;20233;-58
2022/10/23 09:30:33;;;;;;;1.20;1.20;;;;;;;;;;4998633;28;20221;-58
2022/10/23 09:33:00;;;;;;;1.20;1.20;;;;;;;;;;5003214;28;20240;-58
2022/10/23 09:35:26;;;;;;;1.30;1.30;;;;;;;;;;4990518;28;20251;-58
2022/10/23 09:37:53;;;;;;;1.30;1.30;;;;;;;;;;4986136;28;20581;-58
2022/10/23 09:40:21;;;;;;;0.80;0.80;;;;;;;;;;4997745;28;20229;-58
2022/10/23 09:42:55;;;;;;;0.85;0.85;;;;;;;;;;4967715;28;20607;-58
2022/10/23 09:45:22;;;;;;;0.82;0.82;;;;;;;;;;4997159;28;20308;-57
2022/10/23 09:47:48;;;;;;;0.63;0.63;;;;;;;;;;5004113;28;20213;-56
2022/10/23 09:50:19;;;;;;;0.80;0.80;;;;;;;;;;4983043;28;20263;-53
2022/10/23 09:52:45;;;;;;;0.90;0.90;;;;;;;;;;4983903;28;20235;-56
2022/10/23 09:55:22;;;;;;;0.80;0.80;;;;;;;;;;4960933;28;20585;-57
2022/10/23 09:57:47;;;;;;;0.82;0.82;;;;;;;;;;4958353;28;20225;-55
2022/10/23 10:00:13;;;;;;;0.90;0.90;;;;;;;;;;4981947;28;20228;-56
2022/10/23 10:02:40;;;;;;;0.70;0.70;;;;;;;;;;4989765;28;20291;-57
2022/10/23 10:05:24;;;;;;;0.70;0.70;;;;;;;;;;4988500;28;20229;-57
2022/10/23 10:07:54;;;;;;;0.80;0.80;;;;;;;;;;4988344;28;20248;-55
2022/10/23 10:10:20;;;;;;;0.80;0.80;;;;;;;;;;4970250;28;20217;-56
2022/10/23 10:12:50;;;;;;;0.80;0.80;;;;;;;;;;5001086;28;20248;-56
2022/10/23 10:15:20;;;;;;;0.60;0.60;;;;;;;;;;4979694;28;20233;-56
2022/10/23 10:18:05;;;;;;;0.82;0.82;;;;;;;;;;4993133;28;20252;-57
2022/10/23 10:20:34;;;;;;;0.80;0.80;;;;;;;;;;4999354;28;20648;-56
2022/10/23 10:23:00;;;;;;;0.80;0.80;;;;;;;;;;4998331;28;21151;-55
2022/10/23 10:25:28;;;;;;;0.73;0.73;;;;;;;;;;4995130;28;20231;-57
2022/10/23 10:28:13;;;;;;;0.70;0.70;;;;;;;;;;5002438;28;20561;-56
2022/10/23 10:30:49;;;;;;;0.85;0.85;;;;;;;;;;4996023;28;20304;-57
2022/10/23 10:33:21;;;;;;;1.00;1.00;;;;;;;;;;4987373;28;20648;-55
2022/10/23 10:35:52;;;;;;;1.23;1.23;;;;;;;;;;4996007;28;20225;-56
2022/10/23 10:38:37;;;;;;;1.10;1.10;;;;;;;;;;5000550;28;20699;-56
2022/10/23 10:41:11;;;;;;;1.20;1.20;;;;;;;;;;4999309;28;20229;-57
2022/10/23 10:43:48;;;;;;;1.20;1.20;;;;;;;;;;4998476;28;20312;-56
2022/10/23 10:46:19;;;;;;;1.10;1.10;;;;;;;;;;4998466;28;20212;-56
2022/10/23 10:48:52;;;;;;;1.23;1.23;;;;;;;;;;4992496;28;20235;-56
2022/10/23 10:51:22;;;;;;;1.50;1.50;;;;;;;;;;4995313;28;20221;-55
2022/10/23 10:54:00;;;;;;;1.50;1.50;;;;;;;;;;4979111;28;20251;-56
2022/10/23 10:56:26;;;;;;;1.30;1.30;;;;;;;;;;4995532;28;20316;-56
2022/10/23 10:58:53;;;;;;;1.40;1.40;;;;;;;;;;4973935;28;20229;-57
2022/10/23 11:01:25;;;;;;;1.67;1.67;;;;;;;;;;4993888;28;20706;-56
2022/10/23 11:04:20;;;;;;;1.20;1.20;;;;;;;;;;4987183;28;20286;-56
2022/10/23 11:06:46;;;;;;;1.23;1.23;;;;;;;;;;4987524;28;20237;-55
2022/10/23 11:09:17;;;;;;;1.10;1.10;;;;;;;;;;4968656;28;20225;-56
2022/10/23 11:11:43;;;;;;;1.27;1.27;;;;;;;;;;4984852;28;20830;-56
2022/10/23 11:14:16;;;;;;;1.40;1.40;;;;;;;;;;4997065;28;20234;-56
2022/10/23 11:16:42;;;;;;;1.20;1.20;;;;;;;;;;4992053;28;20303;-56
2022/10/23 11:19:19;;;;;;;1.53;1.53;;;;;;;;;;4977761;28;20305;-56
2022/10/23 11:22:00;;;;;;;1.50;1.50;;;;;;;;;;4973883;28;20239;-55
2022/10/23 11:24:45;;;;;;;1.40;1.40;;;;;;;;;;4996667;28;20230;-55
2022/10/23 11:27:29;;;;;;;1.30;1.30;;;;;;;;;;4999040;28;20252;-56
2022/10/23 11:30:14;;;;;;;1.40;1.40;;;;;;;;;;4996581;28;20257;-56
2022/10/23 11:32:48;;;;;;;1.50;1.50;;;;;;;;;;4994414;28;20260;-56
2022/10/23 11:35:18;;;;;;;1.30;1.30;;;;;;;;;;4996953;28;20233;-56
2022/10/23 11:37:44;;;;;;;1.40;1.40;;;;;;;;;;4980125;28;20261;-55
2022/10/23 11:40:10;;;;;;;1.50;1.50;;;;;;;;;;4996575;28;20307;-55
2022/10/23 11:42:39;;;;;;;1.30;1.30;;;;;;;;;;4959088;28;20255;-57
2022/10/23 11:45:24;;;;;;;1.30;1.30;;;;;;;;;;4986113;28;20672;-55
2022/10/23 11:48:00;;;;;;;1.50;1.50;;;;;;;;;;4997929;28;20217;-57
2022/10/23 11:50:27;;;;;;;1.50;1.50;;;;;;;;;;4994927;28;20248;-56
2022/10/23 11:53:09;;;;;;;1.47;1.47;;;;;;;;;;4984818;28;20260;-56
2022/10/23 11:55:35;;;;;;;1.27;1.27;;;;;;;;;;4975356;28;20236;-57
2022/10/23 11:58:04;;;;;;;1.10;1.10;;;;;;;;;;5001699;28;20695;-56
2022/10/23 12:00:31;;;;;;;1.50;1.50;;;;;;;;;;4987560;28;20256;-56
2022/10/23 12:02:56;;;;;;;1.88;1.77;;;;;;;;;;4973012;28;20336;-56
2022/10/23 12:05:39;;;;;;;1.40;1.40;;;;;;;;;;4974365;28;20240;-57
2022/10/23 12:08:05;;;;;;;1.30;1.30;;;;;;;;;;4990600;28;20233;-56
2022/10/23 12:10:35;;;;;;;1.30;1.30;;;;;;;;;;4993174;28;20250;-56
2022/10/23 12:13:04;;;;;;;1.50;1.50;;;;;;;;;;4990476;28;20291;-57
2022/10/23 12:15:31;;;;;;;1.40;1.40;;;;;;;;;;4986258;28;20689;-57
2022/10/23 12:18:15;;;;;;;1.40;1.40;;;;;;;;;;4987241;28;20222;-56
2022/10/23 12:20:46;;;;;;;1.52;1.52;;;;;;;;;;4992254;28;20240;-56
2022/10/23 12:23:20;;;;;;;1.60;1.60;;;;;;;;;;4988275;28;20237;-56
2022/10/23 12:25:54;;;;;;;1.52;1.52;;;;;;;;;;4971789;28;20233;-57
2022/10/23 12:28:28;;;;;;;1.50;1.50;;;;;;;;;;4995396;28;20219;-56
2022/10/23 12:31:13;;;;;;;1.83;1.75;;;;;;;;;;4994657;28;20221;-56
2022/10/23 12:33:42;;;;;;;1.50;1.50;;;;;;;;;;4993796;28;20227;-56
2022/10/23 12:36:12;;;;;;;1.40;1.40;;;;;;;;;;4985378;28;20300;-57
2022/10/23 12:38:48;;;;;;;1.40;1.40;;;;;;;;;;4973236;28;20547;-56
2022/10/23 12:41:14;;;;;;;1.50;1.50;;;;;;;;;;4992621;28;20216;-56
2022/10/23 12:43:40;;;;;;;1.40;1.40;;;;;;;;;;4993992;28;20232;-56
2022/10/23 12:46:15;;;;;;;1.55;1.55;;;;;;;;;;4992294;28;20221;-56
2022/10/23 12:48:48;;;;;;;1.40;1.40;;;;;;;;;;4996462;28;20606;-56
2022/10/23 12:51:16;;;;;;;1.60;1.60;;;;;;;;;;4974291;28;20212;-55
2022/10/23 12:53:42;;;;;;;1.40;1.40;;;;;;;;;;4964114;28;20244;-56
2022/10/23 12:56:09;;;;;;;1.40;1.40;;;;;;;;;;4965339;28;20727;-56
2022/10/23 12:58:36;;;;;;;1.40;1.40;;;;;;;;;;4957019;28;20825;-55
2022/10/23 13:01:03;;;;;;;1.40;1.40;;;;;;;;;;4989850;28;20301;-56
2022/10/23 13:03:29;;;;;;;1.50;1.50;;;;;;;;;;4995177;28;20328;-56
2022/10/23 13:05:57;;;;;;;1.60;1.60;;;;;;;;;;4986323;28;20251;-56
2022/10/23 13:08:31;;;;;;;1.80;1.70;;;;;;;;;;4986428;28;20488;-56
2022/10/23 13:10:57;;;;;;;1.50;1.50;;;;;;;;;;4982058;28;20229;-56
2022/10/23 13:13:23;;;;;;;1.60;1.60;;;;;;;;;;4980160;28;20224;-55
2022/10/23 13:15:49;;;;;;;1.50;1.50;;;;;;;;;;4987623;28;20217;-55
2022/10/23 13:18:15;;;;;;;1.60;1.60;;;;;;;;;;4995048;28;20304;-55
2022/10/23 13:20:42;;;;;;;1.60;1.60;;;;;;;;;;4986649;28;20224;-55
2022/10/23 13:23:25;;;;;;;1.48;1.48;;;;;;;;;;4981990;28;20232;-55
2022/10/23 13:25:55;;;;;;;1.60;1.60;;;;;;;;;;4989910;28;20229;-55
2022/10/23 13:28:21;;;;;;;1.55;1.55;;;;;;;;;;4968127;28;20328;-55
2022/10/23 13:30:56;;;;;;;1.40;1.40;;;;;;;;;;4961593;28;20228;-55
2022/10/23 13:33:26;;;;;;;1.50;1.50;;;;;;;;;;4973389;28;20243;-56
2022/10/23 13:35:56;;;;;;;1.60;1.60;;;;;;;;;;4992285;28;22106;-56
2022/10/23 13:38:35;;;;;;;2.00;1.90;;;;;;;;;;4991297;28;20252;-56
2022/10/23 13:41:01;;;;;;;2.00;1.90;;;;;;;;;;4985042;28;20641;-55
2022/10/23 13:43:29;;;;;;;2.10;2.00;;;;;;;;;;4987504;28;20564;-55
2022/10/23 13:45:55;;;;;;;1.92;1.83;;;;;;;;;;4947053;28;20655;-56
2022/10/23 13:48:21;;;;;;;1.75;1.70;;;;;;;;;;4984911;28;20225;-55
2022/10/23 13:50:47;;;;;;;1.90;1.80;;;;;;;;;;4983556;28;20800;-54
2022/10/23 13:53:13;;;;;;;1.75;1.70;;;;;;;;;;4973612;28;21544;-55
2022/10/23 13:55:40;;;;;;;1.60;1.60;;;;;;;;;;4989751;28;20802;-55
2022/10/23 13:58:06;;;;;;;1.60;1.60;;;;;;;;;;4962256;28;20278;-55
2022/10/23 14:00:32;;;;;;;1.40;1.40;;;;;;;;;;4980257;28;20683;-55
2022/10/23 14:02:58;;;;;;;1.58;1.58;;;;;;;;;;4986958;28;20252;-55
2022/10/23 14:05:24;;;;;;;1.60;1.60;;;;;;;;;;4980088;28;21943;-55
2022/10/23 14:07:49;;;;;;;1.50;1.50;;;;;;;;;;4980403;28;20553;-55
2022/10/23 14:10:15;;;;;;;1.40;1.40;;;;;;;;;;4995862;28;20312;-55
2022/10/23 14:12:42;;;;;;;1.60;1.60;;;;;;;;;;4992947;28;20260;-55
2022/10/23 14:15:08;;;;;;;1.50;1.50;;;;;;;;;;4983279;28;20233;-55
2022/10/23 14:17:34;;;;;;;1.50;1.50;;;;;;;;;;4964629;28;20254;-55
2022/10/23 14:20:00;;;;;;;1.47;1.47;;;;;;;;;;4973691;28;21205;-55
2022/10/23 14:22:26;;;;;;;1.30;1.30;;;;;;;;;;4975008;28;20594;-55
2022/10/23 14:24:52;;;;;;;1.30;1.30;;;;;;;;;;4972570;28;20649;-55
2022/10/23 14:27:18;;;;;;;1.40;1.40;;;;;;;;;;4979233;28;20221;-55
2022/10/23 14:29:44;;;;;;;1.10;1.10;;;;;;;;;;4981373;28;20914;-55
2022/10/23 14:32:10;;;;;;;1.30;1.30;;;;;;;;;;4985896;28;20695;-55
2022/10/23 14:34:38;;;;;;;1.10;1.10;;;;;;;;;;4962850;28;20260;-54
2022/10/23 14:37:04;;;;;;;1.20;1.20;;;;;;;;;;4986818;28;20308;-55
2022/10/23 14:39:30;;;;;;;1.40;1.40;;;;;;;;;;4985071;28;20229;-55
2022/10/23 14:41:56;;;;;;;1.20;1.20;;;;;;;;;;4987601;28;20998;-55
2022/10/23 14:44:22;;;;;;;1.20;1.20;;;;;;;;;;4986525;28;20355;-55
2022/10/23 14:46:48;;;;;;;1.30;1.30;;;;;;;;;;4988078;28;20308;-55
2022/10/23 14:49:14;;;;;;;1.20;1.20;;;;;;;;;;4979591;28;20230;-55